Terminal Aerodrome Forecast
Issued by NWS

Home | Current Version | Previous Version | Text Only | Print | Product List | Glossary On
Versions: 1 2 3 4 5 6 7 8 9 10 11 12 13 14 15 16
000
FTUS42 KMLB 241700
TAFFPR
TAF
KFPR 241736Z 2418/2518 23006KT P6SM SCT015 SCT060
     FM242000 14011KT P6SM VCSH BKN035
     FM250000 16006KT P6SM FEW050 SCT250
     FM250400 VRB02KT P6SM SCT250
     FM251300 19005KT P6SM SCT040=

USA.gov is the U.S. government's official web portal to all federal, state and local government web resources and services.